createdAt,value
2022-08-05T04:31:01.000Z,64.00
2022-08-05T04:31:59.343Z,72.00
2022-08-05T04:32:59.322Z,84.00
2022-08-05T04:34:18.577Z,92.00
2022-08-05T04:35:00.292Z,100.00
2022-08-05T04:36:10.667Z,100.00
2022-08-05T04:37:00.282Z,96.00
2022-08-05T04:38:02.663Z,96.00
2022-08-05T04:39:00.255Z,92.00
2022-08-05T04:39:59.222Z,88.00
2022-08-05T04:40:59.222Z,84.00
2022-08-05T04:41:59.202Z,88.00
2022-08-05T04:42:59.202Z,92.00
2022-08-05T04:44:09.407Z,104.00
2022-08-05T04:44:59.190Z,116.00
2022-08-05T04:45:59.159Z,128.00
2022-08-05T04:46:59.303Z,140.00
2022-08-05T04:47:59.128Z,172.00
2022-08-05T04:48:59.128Z,204.00
2022-08-05T04:50:02.759Z,248.00
2022-08-05T04:51:02.552Z,292.00
2022-08-05T04:52:00.552Z,340.00
2022-08-05T04:52:59.080Z,376.00
2022-08-05T04:53:59.048Z,412.00
2022-08-05T04:54:59.040Z,428.00
2022-08-05T04:56:33.959Z,452.00
2022-08-05T04:57:00.008Z,504.00
2022-08-05T04:57:59.018Z,592.00
2022-08-05T04:58:58.989Z,720.00
2022-08-05T04:59:59.070Z,872.00
2022-08-05T05:00:59.029Z,1000.00
2022-08-05T05:02:08.231Z,1092.00
2022-08-05T05:03:03.763Z,1176.00
2022-08-05T05:03:58.951Z,1212.00
2022-08-05T05:05:02.378Z,1160.00
2022-08-05T05:06:39.152Z,1024.00
2022-08-05T05:06:59.888Z,860.00
2022-08-05T05:08:01.517Z,704.00
2022-08-05T05:08:58.848Z,588.00
2022-08-05T05:09:58.840Z,504.00
2022-08-05T05:10:58.835Z,452.00
2022-08-05T05:12:02.862Z,436.00
2022-08-05T05:12:58.837Z,464.00
2022-08-05T05:13:58.787Z,528.00
2022-08-05T05:14:58.778Z,620.00
2022-08-05T05:16:02.303Z,712.00
2022-08-05T05:16:59.756Z,792.00
2022-08-05T05:17:58.951Z,852.00
2022-08-05T05:19:18.986Z,844.00
2022-08-05T05:19:59.719Z,772.00
2022-08-05T05:20:58.764Z,736.00
2022-08-05T05:21:58.696Z,748.00
2022-08-05T05:23:01.384Z,768.00
2022-08-05T05:24:02.221Z,772.00
2022-08-05T05:25:01.216Z,740.00
2022-08-05T05:25:58.627Z,716.00
2022-08-05T05:26:58.617Z,700.00
2022-08-05T05:27:58.709Z,712.00
2022-08-05T05:28:58.609Z,804.00
2022-08-05T05:30:04.624Z,924.00
2022-08-05T05:30:59.586Z,1064.00
2022-08-05T05:31:58.548Z,1172.00
2022-08-05T05:33:00.825Z,1240.00
2022-08-05T05:34:01.661Z,1280.00
2022-08-05T05:34:58.518Z,1268.00
2022-08-05T05:35:58.517Z,1288.00
2022-08-05T05:36:58.487Z,1368.00
2022-08-05T05:38:00.178Z,1476.00
2022-08-05T05:38:58.515Z,1572.00
2022-08-05T05:39:58.469Z,1576.00
2022-08-05T05:40:58.453Z,1472.00
2022-08-05T05:41:58.426Z,1496.00
2022-08-05T05:42:58.408Z,1588.00
2022-08-05T05:44:00.315Z,1740.00
2022-08-05T05:44:59.385Z,1940.00
2022-08-05T05:45:58.374Z,2108.00
2022-08-05T05:46:58.422Z,2176.00
2022-08-05T05:48:05.542Z,2164.00
2022-08-05T05:48:59.347Z,2100.00
2022-08-05T05:50:01.836Z,2112.00
2022-08-05T05:50:59.310Z,2256.00
2022-08-05T05:51:59.288Z,2468.00
2022-08-05T05:52:58.278Z,2684.00
2022-08-05T05:53:59.840Z,2904.00
2022-08-05T05:54:58.257Z,3088.00
2022-08-05T05:56:00.636Z,3212.00
2022-08-05T05:56:58.228Z,3244.00
2022-08-05T05:57:58.230Z,3160.00
2022-08-05T05:58:58.228Z,2876.00
2022-08-05T05:59:59.198Z,2464.00
2022-08-05T06:00:58.178Z,2080.00
2022-08-05T06:01:59.173Z,1784.00
2022-08-05T06:02:58.148Z,1588.00
2022-08-05T06:04:01.712Z,1496.00
2022-08-05T06:04:59.203Z,1488.00
2022-08-05T06:05:58.109Z,1492.00
2022-08-05T06:06:58.097Z,1488.00
2022-08-05T06:08:01.932Z,1460.00
2022-08-05T06:08:58.095Z,1412.00
2022-08-05T06:10:01.387Z,1356.00
2022-08-05T06:10:59.053Z,1308.00
2022-08-05T06:11:59.094Z,1264.00
2022-08-05T06:12:58.017Z,1212.00
2022-08-05T06:13:58.017Z,1136.00
2022-08-05T06:14:58.016Z,1052.00
2022-08-05T06:16:28.839Z,972.00
2022-08-05T06:16:59.033Z,908.00
2022-08-05T06:17:57.968Z,864.00
2022-08-05T06:19:01.187Z,832.00
2022-08-05T06:19:59.582Z,824.00
2022-08-05T06:20:57.919Z,872.00
2022-08-05T06:21:57.909Z,980.00
2022-08-05T06:22:57.902Z,1128.00
2022-08-05T06:23:57.878Z,1236.00
2022-08-05T06:24:57.865Z,1388.00
2022-08-05T06:26:12.583Z,1528.00
2022-08-05T06:26:58.837Z,1648.00
2022-08-05T06:28:12.137Z,1736.00
2022-08-05T06:28:58.817Z,1768.00
2022-08-05T06:30:04.338Z,1756.00
2022-08-05T06:30:58.787Z,1724.00
2022-08-05T06:31:57.798Z,1676.00
2022-08-05T06:32:57.775Z,1548.00
2022-08-05T06:34:06.985Z,1384.00
2022-08-05T06:34:58.803Z,1256.00
2022-08-05T06:36:03.380Z,1188.00
2022-08-05T06:36:58.831Z,1188.00
2022-08-05T06:37:59.583Z,1200.00
2022-08-05T06:38:58.721Z,1236.00
2022-08-05T06:39:57.677Z,1316.00
2022-08-05T06:40:57.665Z,1380.00
2022-08-05T06:41:58.946Z,1404.00
2022-08-05T06:42:57.627Z,1452.00
2022-08-05T06:44:00.567Z,1612.00
2022-08-05T06:44:57.597Z,1868.00
2022-08-05T06:46:03.563Z,2068.00
2022-08-05T06:46:58.575Z,2044.00
2022-08-05T06:48:46.857Z,1816.00
2022-08-05T06:48:59.274Z,1536.00
2022-08-05T06:50:01.566Z,1324.00
2022-08-05T06:50:58.537Z,1192.00
2022-08-05T06:51:57.519Z,1112.00
2022-08-05T06:52:58.554Z,1064.00
2022-08-05T06:53:57.497Z,996.00
2022-08-05T06:54:57.467Z,880.00
2022-08-05T06:55:57.458Z,756.00
2022-08-05T06:57:56.713Z,664.00
2022-08-05T06:58:11.684Z,616.00
2022-08-05T06:58:58.447Z,588.00
2022-08-05T06:59:58.312Z,564.00
2022-08-05T07:00:57.408Z,544.00
2022-08-05T07:01:57.385Z,548.00
2022-08-05T07:02:57.359Z,580.00
2022-08-05T07:03:57.357Z,636.00
2022-08-05T07:04:57.347Z,704.00
2022-08-05T07:05:57.339Z,784.00
2022-08-05T07:06:57.320Z,852.00
2022-08-05T07:07:57.306Z,836.00
2022-08-05T07:08:59.067Z,756.00
2022-08-05T07:09:58.451Z,700.00
2022-08-05T07:10:58.216Z,712.00
2022-08-05T07:12:00.239Z,772.00
2022-08-05T07:12:57.242Z,856.00
2022-08-05T07:14:00.060Z,988.00
2022-08-05T07:14:57.227Z,1128.00
2022-08-05T07:16:01.441Z,1252.00
2022-08-05T07:17:58.331Z,1256.00
2022-08-05T07:18:07.084Z,1228.00
2022-08-05T07:18:58.158Z,1228.00
2022-08-05T07:20:31.369Z,1232.00
2022-08-05T07:20:58.128Z,1332.00
2022-08-05T07:22:00.962Z,1468.00
2022-08-05T07:22:57.108Z,1444.00
2022-08-05T07:23:57.108Z,1476.00
2022-08-05T07:24:57.091Z,1568.00
2022-08-05T07:25:57.171Z,1396.00
2022-08-05T07:26:57.056Z,1244.00
2022-08-05T07:28:02.272Z,1320.00
2022-08-05T07:28:58.027Z,1400.00
2022-08-05T07:30:27.919Z,1580.00
2022-08-05T07:30:58.006Z,1760.00
2022-08-05T07:31:56.997Z,2076.00
2022-08-05T07:32:57.389Z,2332.00
2022-08-05T07:33:56.997Z,2484.00
2022-08-05T07:34:57.767Z,2608.00
2022-08-05T07:36:19.675Z,2712.00
2022-08-05T07:36:57.924Z,2708.00
2022-08-05T07:37:56.919Z,2716.00
2022-08-05T07:38:56.937Z,2728.00
2022-08-05T07:40:03.978Z,2780.00
2022-08-05T07:41:01.481Z,2944.00
2022-08-05T07:42:13.452Z,3244.00
2022-08-05T07:42:57.858Z,3452.00
2022-08-05T07:43:57.110Z,3356.00
2022-08-05T07:44:56.850Z,3272.00
2022-08-05T07:45:58.490Z,3336.00
2022-08-05T07:46:56.817Z,3408.00
2022-08-05T07:47:56.807Z,3388.00
2022-08-05T07:49:01.679Z,2960.00
2022-08-05T07:49:57.768Z,2464.00
2022-08-05T07:50:56.747Z,2000.00
2022-08-05T07:51:56.726Z,1604.00
2022-08-05T07:52:56.717Z,1400.00
2022-08-05T07:53:56.706Z,1288.00
2022-08-05T07:54:56.717Z,1164.00
2022-08-05T07:56:06.330Z,1036.00
2022-08-05T07:57:02.422Z,1016.00
2022-08-05T07:58:03.211Z,1340.00
2022-08-05T07:58:59.354Z,2044.00
2022-08-05T07:59:56.638Z,2628.00
2022-08-05T08:00:56.670Z,3008.00
2022-08-05T08:01:57.652Z,3180.00
2022-08-05T08:03:13.337Z,3256.00
2022-08-05T08:03:57.567Z,3244.00
2022-08-05T08:04:56.567Z,3144.00
2022-08-05T08:05:56.567Z,3032.00
2022-08-05T08:06:56.536Z,2936.00
2022-08-05T08:08:00.201Z,2940.00
2022-08-05T08:08:56.539Z,3016.00
2022-08-05T08:09:56.521Z,3112.00
2022-08-05T08:10:56.499Z,3184.00
2022-08-05T08:11:59.037Z,2988.00
2022-08-05T08:12:58.526Z,2752.00
2022-08-05T08:14:00.839Z,2676.00
2022-08-05T08:14:56.436Z,2668.00
2022-08-05T08:16:34.667Z,2756.00
2022-08-05T08:16:57.415Z,2968.00
2022-08-05T08:17:56.397Z,3164.00
2022-08-05T08:18:57.396Z,3324.00
2022-08-05T08:20:21.653Z,3536.00
2022-08-05T08:21:02.939Z,3748.00
2022-08-05T08:21:57.346Z,3896.00
2022-08-05T08:22:56.337Z,4012.00
2022-08-05T08:24:01.044Z,4124.00
2022-08-05T08:25:03.374Z,4244.00
2022-08-05T08:26:00.069Z,4312.00
2022-08-05T08:26:56.277Z,4144.00
2022-08-05T08:27:56.265Z,3928.00
2022-08-05T08:28:59.792Z,3796.00
2022-08-05T08:30:05.938Z,3600.00
2022-08-05T08:30:57.236Z,3424.00
2022-08-05T08:31:56.206Z,3376.00
2022-08-05T08:32:56.204Z,3328.00
2022-08-05T08:33:56.390Z,3220.00
2022-08-05T08:34:56.175Z,2984.00
2022-08-05T08:36:18.469Z,2760.00
2022-08-05T08:37:03.144Z,2768.00
2022-08-05T08:37:57.147Z,2916.00
2022-08-05T08:38:57.067Z,3124.00
2022-08-05T08:39:56.154Z,3220.00
2022-08-05T08:40:56.119Z,3068.00
2022-08-05T08:41:59.980Z,2828.00
2022-08-05T08:42:57.266Z,2624.00
2022-08-05T08:45:24.352Z,2348.00
2022-08-05T08:45:25.337Z,2504.00
2022-08-05T08:45:57.055Z,2132.00
2022-08-05T08:46:56.016Z,1808.00
2022-08-05T08:48:11.702Z,1868.00
2022-08-05T08:49:07.964Z,2092.00
2022-08-05T08:50:23.069Z,2364.00
2022-08-05T08:51:07.605Z,2416.00
2022-08-05T08:52:03.147Z,2344.00
2022-08-05T08:52:56.936Z,2340.00
2022-08-05T08:53:55.949Z,2408.00
2022-08-05T08:54:55.926Z,2512.00
2022-08-05T08:56:02.586Z,2592.00
2022-08-05T08:56:56.911Z,2576.00
2022-08-05T08:57:58.154Z,2516.00
2022-08-05T08:58:55.886Z,2524.00
2022-08-05T08:59:56.030Z,2520.00
2022-08-05T09:00:55.903Z,2468.00
2022-08-05T09:01:57.614Z,2324.00
2022-08-05T09:02:56.816Z,2200.00
2022-08-05T09:03:57.537Z,2096.00
2022-08-05T09:05:16.283Z,2068.00
2022-08-05T09:06:07.318Z,2076.00
2022-08-05T09:06:56.775Z,2044.00
2022-08-05T09:07:57.536Z,2120.00
2022-08-05T09:08:55.735Z,2280.00
2022-08-05T09:09:55.716Z,2472.00
2022-08-05T09:10:55.721Z,2720.00
2022-08-05T09:12:01.258Z,2988.00
2022-08-05T09:12:56.685Z,3312.00
2022-08-05T09:14:01.264Z,3472.00
2022-08-05T09:15:05.872Z,3208.00
2022-08-05T09:15:56.636Z,2608.00
2022-08-05T09:16:55.635Z,2360.00
2022-08-05T09:17:55.607Z,2372.00
2022-08-05T09:18:55.671Z,2592.00
2022-08-05T09:20:02.871Z,2632.00
2022-08-05T09:20:56.575Z,2580.00
2022-08-05T09:22:22.751Z,2680.00
2022-08-05T09:23:01.613Z,2996.00
2022-08-05T09:24:02.089Z,2924.00
2022-08-05T09:24:56.531Z,2764.00
2022-08-05T09:26:02.077Z,2888.00
2022-08-05T09:26:56.514Z,3012.00
2022-08-05T09:28:03.982Z,3108.00
2022-08-05T09:28:56.493Z,3296.00
2022-08-05T09:29:55.465Z,3232.00
2022-08-05T09:30:55.455Z,3180.00
2022-08-05T09:32:41.814Z,3236.00
2022-08-05T09:32:56.761Z,3480.00
2022-08-05T09:33:55.424Z,3624.00
2022-08-05T09:34:55.396Z,3692.00
2022-08-05T09:35:55.375Z,3924.00
2022-08-05T09:36:59.808Z,4144.00
2022-08-05T09:38:17.363Z,4488.00
2022-08-05T09:38:56.371Z,4680.00
2022-08-05T09:39:56.042Z,4608.00
2022-08-05T09:40:55.317Z,4740.00
2022-08-05T09:41:56.225Z,4984.00
2022-08-05T09:42:55.303Z,4824.00
2022-08-05T09:43:55.433Z,4552.00
2022-08-05T09:44:56.748Z,4444.00
2022-08-05T09:46:06.728Z,4308.00
2022-08-05T09:46:57.995Z,4360.00
2022-08-05T09:47:56.689Z,4616.00
2022-08-05T09:49:07.637Z,4676.00
2022-08-05T09:50:02.543Z,4452.00
2022-08-05T09:50:56.198Z,4248.00
2022-08-05T09:51:55.165Z,4280.00
2022-08-05T09:52:55.205Z,4644.00
2022-08-05T09:53:59.235Z,5224.00
2022-08-05T09:54:56.134Z,5820.00
2022-08-05T09:56:02.921Z,6180.00
2022-08-05T09:56:56.118Z,6632.00
2022-08-05T09:57:58.702Z,6976.00
2022-08-05T09:58:56.084Z,7120.00
2022-08-05T09:59:55.065Z,6812.00
2022-08-05T10:00:55.056Z,6480.00
2022-08-05T10:01:57.983Z,7016.00
2022-08-05T10:02:57.995Z,7648.00
2022-08-05T10:03:59.194Z,7252.00
2022-08-05T10:04:55.006Z,6424.00
2022-08-05T10:05:54.997Z,5576.00
2022-08-05T10:06:59.556Z,4964.00
2022-08-05T10:08:36.053Z,4972.00
2022-08-05T10:08:55.976Z,5312.00
2022-08-05T10:10:14.005Z,5452.00
2022-08-05T10:10:55.946Z,5328.00
2022-08-05T10:11:54.914Z,5260.00
2022-08-05T10:12:54.918Z,5132.00
2022-08-05T10:13:55.012Z,4912.00
2022-08-05T10:14:54.876Z,4724.00
2022-08-05T10:15:54.868Z,4748.00
2022-08-05T10:16:54.856Z,4992.00
2022-08-05T10:17:57.596Z,5236.00
2022-08-05T10:18:54.832Z,5244.00
2022-08-05T10:20:04.240Z,5060.00
2022-08-05T10:20:55.810Z,4656.00
2022-08-05T10:21:54.785Z,4952.00
2022-08-05T10:22:54.794Z,5208.00
2022-08-05T10:23:59.467Z,5464.00
2022-08-05T10:24:55.754Z,5784.00
2022-08-05T10:25:54.737Z,5972.00
2022-08-05T10:26:54.745Z,5828.00
2022-08-05T10:28:13.857Z,5600.00
2022-08-05T10:28:56.432Z,5820.00
2022-08-05T10:30:41.096Z,6104.00
2022-08-05T10:32:52.922Z,6364.00
2022-08-05T10:32:55.399Z,6948.00
2022-08-05T10:33:01.746Z,7028.00
2022-08-05T10:33:55.663Z,7220.00
2022-08-05T10:34:54.625Z,7964.00
2022-08-05T10:35:59.202Z,8564.00
2022-08-05T10:36:55.597Z,9504.00
2022-08-05T10:37:54.585Z,10408.00
2022-08-05T10:38:54.625Z,10776.00
2022-08-05T10:40:03.064Z,10016.00
2022-08-05T10:40:55.547Z,9736.00
2022-08-05T10:41:59.081Z,10156.00
2022-08-05T10:42:55.565Z,11056.00
2022-08-05T10:43:54.521Z,11888.00
2022-08-05T10:45:01.578Z,12920.00
2022-08-05T10:45:54.479Z,14252.00
2022-08-05T10:46:55.462Z,14912.00
2022-08-05T10:48:29.127Z,15776.00
2022-08-05T10:48:58.045Z,24192.00
2022-08-05T10:50:32.276Z,13064.00
2022-08-05T10:50:55.410Z,13756.00
2022-08-05T10:51:59.857Z,15232.00
2022-08-05T10:52:58.787Z,16736.00
2022-08-05T10:53:54.467Z,17056.00
2022-08-05T10:54:56.067Z,19840.00
2022-08-05T10:56:05.054Z,18144.00
2022-08-05T10:56:55.330Z,16608.00
2022-08-05T10:57:54.318Z,16224.00
2022-08-05T10:58:54.320Z,13936.00
2022-08-05T11:00:04.323Z,13628.00
2022-08-05T11:01:03.048Z,14264.00
2022-08-05T11:02:05.410Z,15840.00
2022-08-05T11:02:55.284Z,17664.00
2022-08-05T11:03:54.267Z,18496.00
2022-08-05T11:04:54.229Z,20384.00
2022-08-05T11:05:54.212Z,20192.00
2022-08-05T11:06:55.202Z,17920.00
2022-08-05T11:08:02.875Z,18848.00
2022-08-05T11:08:55.191Z,21376.00
2022-08-05T11:10:09.499Z,32736.00
2022-08-05T11:11:00.934Z,17152.00
2022-08-05T11:11:55.139Z,15744.00
2022-08-05T11:12:55.251Z,17152.00
2022-08-05T11:13:57.563Z,19840.00
2022-08-05T11:15:19.140Z,35296.00
2022-08-05T11:16:00.729Z,60032.00
2022-08-05T11:16:57.255Z,32992.00
2022-08-05T11:18:09.688Z,25664.00
2022-08-05T11:18:55.073Z,23392.00
2022-08-05T11:20:17.608Z,23232.00
2022-08-05T11:20:55.031Z,42336.00
2022-08-05T11:21:54.011Z,24192.00
2022-08-05T11:22:57.998Z,48736.00
2022-08-05T11:24:04.679Z,28896.00
2022-08-05T11:25:16.574Z,26208.00
2022-08-05T11:26:05.970Z,21152.00
2022-08-05T11:26:54.952Z,19392.00
2022-08-05T11:28:00.955Z,19296.00
2022-08-05T11:28:54.942Z,19968.00
2022-08-05T11:29:53.912Z,23712.00
2022-08-05T11:30:53.903Z,21856.00
2022-08-05T11:32:00.320Z,28320.00
2022-08-05T11:32:54.880Z,23968.00
2022-08-05T11:33:53.873Z,21184.00
2022-08-05T11:34:54.323Z,20160.00
2022-08-05T11:36:08.212Z,21056.00
2022-08-05T11:36:54.834Z,21536.00
2022-08-05T11:38:28.357Z,20544.00
2022-08-05T11:38:55.429Z,27232.00
2022-08-05T11:40:00.359Z,20320.00
2022-08-05T11:40:58.739Z,20608.00
2022-08-05T11:42:02.292Z,22688.00
2022-08-05T11:42:54.745Z,26176.00
2022-08-05T11:44:04.491Z,36544.00
2022-08-05T11:44:54.728Z,24672.00
2022-08-05T11:46:15.310Z,24800.00
2022-08-05T11:47:10.257Z,33056.00
2022-08-05T11:47:55.135Z,44288.00
2022-08-05T11:48:53.685Z,24384.00
2022-08-05T11:49:53.656Z,38528.00
2022-08-05T11:50:53.645Z,58176.00
2022-08-05T11:51:53.634Z,29440.00
2022-08-05T11:52:57.529Z,48224.00
2022-08-05T11:53:53.653Z,62336.00
2022-08-05T11:54:55.033Z,39328.00
2022-08-05T11:55:53.575Z,54080.00
2022-08-05T11:56:53.579Z,51232.00
2022-08-05T11:58:10.521Z,43872.00
2022-08-05T11:58:54.577Z,32896.00
2022-08-05T11:59:53.579Z,26560.00
2022-08-05T12:00:53.530Z,27648.00
2022-08-05T12:01:53.506Z,20672.00
2022-08-05T12:02:53.517Z,21792.00
2022-08-05T12:03:55.808Z,26976.00
2022-08-05T12:04:59.662Z,28128.00
2022-08-05T12:05:54.463Z,23296.00
2022-08-05T12:06:53.458Z,23648.00
2022-08-05T12:08:09.257Z,17120.00
2022-08-05T12:08:54.417Z,12940.00
2022-08-05T12:09:53.868Z,12212.00
2022-08-05T12:10:53.398Z,13752.00
2022-08-05T12:11:53.378Z,14396.00
2022-08-05T12:12:59.550Z,14328.00
2022-08-05T12:13:54.359Z,10924.00
2022-08-05T12:14:53.370Z,9948.00
2022-08-05T12:15:55.894Z,10196.00
2022-08-05T12:16:53.328Z,10932.00
2022-08-05T12:18:04.136Z,11836.00
2022-08-05T12:18:54.299Z,12412.00
2022-08-05T12:20:27.016Z,13328.00
2022-08-05T12:20:54.277Z,15520.00
2022-08-05T12:21:53.257Z,22112.00
2022-08-05T12:22:53.249Z,19296.00
2022-08-05T12:23:53.231Z,19936.00
2022-08-05T12:24:53.230Z,19008.00
2022-08-05T12:25:53.304Z,15200.00
2022-08-05T12:26:53.238Z,14816.00
2022-08-05T12:27:53.645Z,20384.00
2022-08-05T12:28:53.170Z,25184.00
2022-08-05T12:29:53.352Z,22656.00
2022-08-05T12:30:53.150Z,18240.00
2022-08-05T12:31:54.220Z,13732.00
2022-08-05T12:32:53.128Z,12028.00
2022-08-05T12:33:53.102Z,10588.00
2022-08-05T12:34:53.109Z,9272.00
2022-08-05T12:35:53.114Z,7884.00
2022-08-05T12:36:53.146Z,7056.00
2022-08-05T12:37:53.224Z,7240.00
2022-08-05T12:38:53.050Z,8408.00
2022-08-05T12:39:53.941Z,10576.00
2022-08-05T12:40:53.020Z,14048.00
2022-08-05T12:41:57.963Z,17344.00
2022-08-05T12:42:53.991Z,18368.00
2022-08-05T12:43:53.021Z,18944.00
2022-08-05T12:44:52.981Z,18944.00
2022-08-05T12:45:52.953Z,16800.00
2022-08-05T12:46:52.942Z,16800.00
2022-08-05T12:48:17.156Z,18304.00
2022-08-05T12:48:53.931Z,38688.00
2022-08-05T12:50:03.698Z,20512.00
2022-08-05T12:50:53.891Z,22528.00
2022-08-05T12:52:12.421Z,23680.00
2022-08-05T12:52:53.869Z,18752.00
2022-08-05T12:53:55.659Z,16896.00
2022-08-05T12:54:52.852Z,17248.00
2022-08-05T12:55:52.834Z,22112.00
2022-08-05T12:56:52.813Z,75328.00
2022-08-05T12:58:51.005Z,53056.00
2022-08-05T12:59:00.958Z,72736.00
2022-08-05T13:01:56.959Z,60288.00
2022-08-05T13:01:59.786Z,22816.00
2022-08-05T13:02:01.517Z,29984.00
2022-08-05T13:02:55.571Z,22816.00
2022-08-05T13:03:52.723Z,28224.00
2022-08-05T13:04:54.735Z,14716.00
2022-08-05T13:05:52.702Z,13028.00
2022-08-05T13:06:52.693Z,10504.00
2022-08-05T13:07:59.310Z,8768.00
2022-08-05T13:08:53.664Z,7420.00
2022-08-05T13:09:56.683Z,6292.00
2022-08-05T13:10:52.644Z,5240.00
2022-08-05T13:12:01.255Z,4312.00
2022-08-05T13:12:58.028Z,3592.00
2022-08-05T13:14:05.926Z,3096.00
2022-08-05T13:15:05.518Z,2668.00
2022-08-05T13:15:53.575Z,2372.00
2022-08-05T13:16:52.566Z,2188.00
2022-08-05T13:17:52.556Z,2020.00
2022-08-05T13:18:52.543Z,2024.00
2022-08-05T13:19:53.120Z,2080.00
2022-08-05T13:20:52.525Z,2208.00
2022-08-05T13:21:55.980Z,2544.00
2022-08-05T13:22:52.486Z,3008.00
2022-08-05T13:23:52.479Z,3552.00
2022-08-05T13:24:58.051Z,4128.00
2022-08-05T13:25:59.150Z,4576.00
2022-08-05T13:26:53.443Z,4748.00
2022-08-05T13:27:52.456Z,4760.00
2022-08-05T13:28:52.494Z,4596.00
2022-08-05T13:30:32.328Z,4400.00
2022-08-05T13:30:53.676Z,4168.00
2022-08-05T13:32:04.200Z,3924.00
2022-08-05T13:32:53.365Z,3716.00
2022-08-05T13:34:21.626Z,3624.00
2022-08-05T13:34:53.337Z,3724.00
2022-08-05T13:35:52.327Z,3888.00
2022-08-05T13:36:52.315Z,4040.00
2022-08-05T13:37:55.399Z,4196.00
2022-08-05T13:38:52.286Z,4372.00
2022-08-05T13:40:16.401Z,4732.00
2022-08-05T13:40:53.369Z,5048.00
2022-08-05T13:41:52.246Z,5304.00
2022-08-05T13:42:55.707Z,5304.00
2022-08-05T13:43:54.492Z,5372.00
2022-08-05T13:44:52.207Z,5672.00
2022-08-05T13:45:52.206Z,5916.00
2022-08-05T13:47:04.548Z,6152.00
2022-08-05T13:48:09.848Z,6360.00
2022-08-05T13:48:57.520Z,6468.00
2022-08-05T13:49:53.147Z,6668.00
2022-08-05T13:50:52.145Z,7124.00
2022-08-05T13:51:52.117Z,7836.00
2022-08-05T13:52:52.096Z,8908.00
2022-08-05T13:53:52.095Z,10092.00
2022-08-05T13:54:53.331Z,11356.00
2022-08-05T13:55:58.878Z,12724.00
2022-08-05T13:56:53.047Z,14280.00
2022-08-05T13:57:52.206Z,15616.00
2022-08-05T13:58:53.415Z,19168.00
2022-08-05T13:59:59.310Z,20128.00
2022-08-05T14:00:53.015Z,23584.00
2022-08-05T14:01:59.151Z,73696.00
2022-08-05T14:02:53.061Z,23872.00
2022-08-05T14:03:51.970Z,65024.00
2022-08-05T14:04:52.038Z,19776.00
2022-08-05T14:06:25.195Z,21696.00
2022-08-05T14:07:12.157Z,28576.00
2022-08-05T14:08:00.389Z,76032.00
2022-08-05T14:08:52.899Z,76256.00
2022-08-05T14:09:51.887Z,74112.00
2022-08-05T14:10:51.868Z,64352.00
2022-08-05T14:12:03.950Z,24480.00
2022-08-05T14:12:54.634Z,15028.00
2022-08-05T14:13:55.004Z,56128.00
2022-08-05T14:14:52.820Z,18656.00
2022-08-05T14:16:05.681Z,17728.00
2022-08-05T14:16:55.396Z,14376.00
2022-08-05T14:17:51.788Z,12660.00
2022-08-05T14:18:51.770Z,12336.00
2022-08-05T14:19:55.361Z,14240.00
2022-08-05T14:20:55.114Z,13544.00
2022-08-05T14:22:09.232Z,13868.00
2022-08-05T14:22:52.717Z,14128.00
2022-08-05T14:23:51.716Z,14936.00
2022-08-05T14:24:51.690Z,15904.00
2022-08-05T14:25:53.800Z,18912.00
2022-08-05T14:27:15.560Z,19616.00
2022-08-05T14:27:52.659Z,18656.00
2022-08-05T14:28:52.132Z,27424.00
2022-08-05T14:29:52.160Z,25600.00
2022-08-05T14:30:53.445Z,23776.00
2022-08-05T14:32:03.805Z,20864.00
2022-08-05T14:32:52.603Z,20512.00
2022-08-05T14:33:59.316Z,20416.00
2022-08-05T14:34:52.570Z,65504.00
2022-08-05T14:35:54.000Z,70560.00
2022-08-05T14:36:51.552Z,24992.00
2022-08-05T14:37:55.434Z,56096.00
2022-08-05T14:38:51.523Z,22400.00
2022-08-05T14:39:57.013Z,37184.00
2022-08-05T14:40:52.489Z,19520.00
2022-08-05T14:42:15.877Z,16256.00
2022-08-05T14:42:52.463Z,18368.00
2022-08-05T14:43:58.810Z,15520.00
2022-08-05T14:44:52.442Z,16192.00
2022-08-05T14:45:51.436Z,13732.00
2022-08-05T14:46:51.425Z,12760.00
2022-08-05T14:48:05.556Z,13688.00
2022-08-05T14:48:52.382Z,36512.00
2022-08-05T14:49:59.505Z,15776.00
2022-08-05T14:50:52.363Z,17216.00
2022-08-05T14:51:51.374Z,23040.00
2022-08-05T14:52:56.911Z,28896.00
2022-08-05T14:54:06.598Z,38240.00
2022-08-05T14:54:52.741Z,67168.00
2022-08-05T14:55:52.648Z,43488.00
2022-08-05T14:56:51.712Z,65632.00
2022-08-05T14:57:54.691Z,65056.00
2022-08-05T14:58:53.192Z,45888.00
2022-08-05T14:59:51.325Z,65600.00
2022-08-05T15:00:59.199Z,64960.00
2022-08-05T15:01:53.885Z,67136.00
2022-08-05T15:02:51.265Z,26752.00
2022-08-05T15:03:51.214Z,25312.00
2022-08-05T15:04:51.186Z,20352.00
2022-08-05T15:06:07.695Z,30560.00
2022-08-05T15:06:52.185Z,18240.00
2022-08-05T15:08:08.834Z,15432.00
2022-08-05T15:09:01.210Z,16832.00
2022-08-05T15:09:54.545Z,16608.00
2022-08-05T15:10:51.117Z,19136.00
2022-08-05T15:11:53.660Z,33056.00
2022-08-05T15:13:00.842Z,58112.00
2022-08-05T15:13:52.086Z,21664.00
2022-08-05T15:14:51.066Z,16864.00
2022-08-05T15:15:54.910Z,48576.00
2022-08-05T15:16:52.058Z,60256.00
2022-08-05T15:17:51.203Z,61792.00
2022-08-05T15:18:51.027Z,61248.00
2022-08-05T15:19:51.000Z,60992.00
2022-08-05T15:20:51.035Z,57632.00
2022-08-05T15:21:50.968Z,57568.00
2022-08-05T15:22:54.559Z,56832.00
2022-08-05T15:23:50.954Z,59168.00
2022-08-05T15:24:50.937Z,58688.00
2022-08-05T15:25:55.867Z,54944.00
2022-08-05T15:26:51.919Z,49344.00
2022-08-05T15:27:52.526Z,28704.00
2022-08-05T15:28:51.972Z,33664.00
2022-08-05T15:29:50.878Z,57952.00
2022-08-05T15:30:52.879Z,59488.00
2022-08-05T15:31:52.906Z,50016.00
2022-08-05T15:32:50.858Z,57248.00
2022-08-05T15:34:05.014Z,56928.00
2022-08-05T15:34:51.817Z,57312.00
2022-08-05T15:35:50.807Z,56672.00
2022-08-05T15:36:50.790Z,58048.00
2022-08-05T15:38:09.209Z,57568.00
2022-08-05T15:40:41.646Z,56480.00
2022-08-05T15:40:59.774Z,60128.00
2022-08-05T15:41:20.310Z,60736.00
2022-08-05T15:41:57.591Z,61280.00
2022-08-05T15:42:56.615Z,24416.00
2022-08-05T15:43:51.849Z,61184.00
2022-08-05T15:44:50.690Z,61504.00
2022-08-05T15:46:00.616Z,62688.00
2022-08-05T15:46:52.677Z,45792.00
2022-08-05T15:47:50.669Z,63104.00
2022-08-05T15:48:54.608Z,63104.00
2022-08-05T15:49:56.761Z,61920.00
2022-08-05T15:50:51.622Z,55872.00
2022-08-05T15:52:04.402Z,13052.00
2022-08-05T15:52:54.973Z,11528.00
2022-08-05T15:53:50.584Z,13680.00
2022-08-05T15:54:50.573Z,20960.00
2022-08-05T15:56:02.157Z,18144.00
2022-08-05T15:56:51.552Z,21824.00
2022-08-05T15:57:50.543Z,10260.00
2022-08-05T15:58:50.523Z,9876.00
2022-08-05T15:59:53.992Z,9576.00
2022-08-05T16:01:11.549Z,9300.00
2022-08-05T16:01:53.023Z,9904.00
2022-08-05T16:02:50.521Z,12000.00
2022-08-05T16:03:51.059Z,12988.00
2022-08-05T16:04:50.455Z,16512.00
2022-08-05T16:05:52.735Z,41280.00
2022-08-05T16:06:51.424Z,38624.00
2022-08-05T16:07:50.415Z,18400.00
2022-08-05T16:08:51.075Z,54336.00
2022-08-05T16:09:50.387Z,53408.00
2022-08-05T16:10:50.374Z,51168.00
2022-08-05T16:11:53.067Z,50208.00
2022-08-05T16:12:50.365Z,51712.00
2022-08-05T16:13:50.334Z,51520.00
2022-08-05T16:14:50.326Z,50688.00
2022-08-05T16:15:50.305Z,49632.00
2022-08-05T16:16:50.300Z,50752.00
2022-08-05T16:17:57.941Z,50944.00
2022-08-05T16:18:51.863Z,51168.00
2022-08-05T16:20:04.442Z,50912.00
2022-08-05T16:20:51.268Z,51936.00
2022-08-05T16:22:00.382Z,51776.00
2022-08-05T16:22:51.246Z,49568.00
2022-08-05T16:23:54.141Z,49600.00
2022-08-05T16:24:52.266Z,50464.00
2022-08-05T16:25:50.187Z,52320.00
2022-08-05T16:26:51.176Z,52832.00
2022-08-05T16:28:02.121Z,51168.00
2022-08-05T16:28:51.159Z,49984.00
2022-08-05T16:29:51.203Z,48768.00